createdAt,value
2023-08-07T00:03:26.118Z,79.55
2023-08-07T00:08:33.056Z,78.87
2023-08-07T00:13:40.089Z,79.19
2023-08-07T00:18:44.945Z,79.43
2023-08-07T00:23:50.114Z,78.82
2023-08-07T00:28:54.987Z,78.66
2023-08-07T00:34:01.500Z,78.64
2023-08-07T00:39:07.289Z,78.94
2023-08-07T00:44:17.486Z,78.27
2023-08-07T00:49:23.126Z,78.23
2023-08-07T00:54:28.990Z,78.57
2023-08-07T00:59:34.026Z,78.27
2023-08-07T01:04:39.772Z,77.75
2023-08-07T01:09:45.125Z,77.17
2023-08-07T01:15:05.243Z,77.66
2023-08-07T01:20:11.002Z,77.82
2023-08-07T01:25:16.218Z,78.01
2023-08-07T01:30:30.851Z,76.95
2023-08-07T01:35:42.533Z,77.43
2023-08-07T01:40:49.179Z,76.41
2023-08-07T01:45:54.049Z,76.70
2023-08-07T01:50:59.059Z,77.05
2023-08-07T01:56:04.192Z,77.24
2023-08-07T02:01:09.921Z,76.74
2023-08-07T02:06:14.942Z,75.82
2023-08-07T02:11:19.343Z,76.73
2023-08-07T02:16:24.317Z,75.98
2023-08-07T02:21:29.332Z,76.60
2023-08-07T02:26:34.380Z,76.25
2023-08-07T02:31:39.577Z,76.82
2023-08-07T02:36:44.784Z,76.15
2023-08-07T02:41:51.319Z,75.91
2023-08-07T02:46:56.473Z,75.45
2023-08-07T02:52:01.705Z,76.06
2023-08-07T02:57:07.174Z,75.80
2023-08-07T03:02:12.052Z,75.00
2023-08-07T03:07:17.958Z,76.03
2023-08-07T03:12:22.725Z,76.18
2023-08-07T03:17:27.768Z,75.69
2023-08-07T03:22:32.874Z,76.26
2023-08-07T03:27:38.319Z,75.93
2023-08-07T03:32:44.364Z,75.76
2023-08-07T03:37:50.710Z,76.09
2023-08-07T03:42:55.645Z,75.90
2023-08-07T03:48:01.419Z,75.85
2023-08-07T03:53:09.546Z,76.26
2023-08-07T03:58:20.298Z,74.88
2023-08-07T04:03:24.868Z,75.54
2023-08-07T04:08:29.812Z,75.59
2023-08-07T04:13:35.119Z,75.45
2023-08-07T04:18:40.133Z,75.25
2023-08-07T04:23:45.273Z,75.06
2023-08-07T04:28:51.266Z,74.80
2023-08-07T04:33:57.197Z,75.65
2023-08-07T04:39:02.227Z,75.87
2023-08-07T04:44:08.609Z,75.70
2023-08-07T04:49:13.495Z,75.22
2023-08-07T04:54:19.835Z,75.10
2023-08-07T04:59:26.117Z,75.97
2023-08-07T05:04:32.259Z,75.65
2023-08-07T05:09:37.242Z,75.42
2023-08-07T05:14:43.213Z,76.17
2023-08-07T05:19:48.069Z,75.44
2023-08-07T05:24:53.051Z,75.24
2023-08-07T05:29:58.101Z,74.90
2023-08-07T05:35:04.045Z,73.60
2023-08-07T05:40:10.051Z,74.78
2023-08-07T05:45:15.156Z,75.40
2023-08-07T05:50:22.380Z,75.47
2023-08-07T05:55:27.749Z,74.96
2023-08-07T06:00:33.760Z,75.18
2023-08-07T06:05:38.949Z,75.06
2023-08-07T06:10:43.890Z,74.13
2023-08-07T06:15:48.986Z,75.34
2023-08-07T06:20:54.059Z,74.99
2023-08-07T06:25:59.975Z,75.50
2023-08-07T06:31:06.033Z,75.17
2023-08-07T06:36:11.625Z,74.43
2023-08-07T06:41:16.402Z,75.26
2023-08-07T06:46:27.776Z,75.35
2023-08-07T06:51:32.911Z,75.16
2023-08-07T06:56:39.892Z,75.24
2023-08-07T07:01:44.722Z,75.48
2023-08-07T07:06:50.424Z,75.07
2023-08-07T07:11:56.015Z,75.30
2023-08-07T07:17:01.754Z,75.40
2023-08-07T07:22:07.181Z,75.18
2023-08-07T07:27:12.453Z,75.27
2023-08-07T07:32:17.471Z,76.30
2023-08-07T07:37:22.473Z,76.22
2023-08-07T07:42:27.967Z,75.74
2023-08-07T07:47:32.953Z,75.88
2023-08-07T07:52:38.195Z,76.03
2023-08-07T07:57:43.384Z,76.50
2023-08-07T08:02:48.830Z,77.17
2023-08-07T08:07:54.347Z,76.86
2023-08-07T08:13:00.399Z,76.42
2023-08-07T08:18:05.440Z,76.36
2023-08-07T08:23:11.202Z,76.43
2023-08-07T08:28:16.342Z,76.29
2023-08-07T08:33:21.407Z,77.02
2023-08-07T08:38:27.728Z,76.64
2023-08-07T08:43:38.479Z,76.41
2023-08-07T08:48:47.027Z,77.15
2023-08-07T08:53:53.543Z,76.52
2023-08-07T08:58:58.520Z,76.67
2023-08-07T09:04:07.332Z,76.85
2023-08-07T09:09:15.453Z,76.76
2023-08-07T09:14:25.283Z,77.19
2023-08-07T09:19:30.414Z,77.02
2023-08-07T09:24:35.348Z,76.78
2023-08-07T09:29:44.338Z,77.15
2023-08-07T09:34:50.087Z,76.65
2023-08-07T09:39:55.605Z,77.06
2023-08-07T09:45:01.382Z,77.27
2023-08-07T09:50:06.885Z,77.17
2023-08-07T09:55:11.820Z,76.96
2023-08-07T10:00:17.830Z,77.29
2023-08-07T10:05:23.030Z,77.85
2023-08-07T10:10:29.997Z,77.40
2023-08-07T10:15:37.175Z,77.03
2023-08-07T10:20:44.761Z,77.51
2023-08-07T10:25:53.565Z,77.14
2023-08-07T10:31:00.160Z,77.06
2023-08-07T10:36:12.668Z,77.34
2023-08-07T10:41:18.140Z,77.85
2023-08-07T10:46:25.488Z,77.23
2023-08-07T10:51:34.241Z,76.55
2023-08-07T10:56:39.827Z,77.40
2023-08-07T11:01:46.793Z,77.09
2023-08-07T11:06:51.879Z,76.86
2023-08-07T11:11:57.139Z,77.36
2023-08-07T11:17:02.072Z,76.86
2023-08-07T11:22:07.651Z,77.11
2023-08-07T11:27:12.618Z,76.73
2023-08-07T11:32:18.829Z,76.50
2023-08-07T11:37:23.544Z,77.38
2023-08-07T11:42:31.589Z,77.02
2023-08-07T11:47:36.761Z,77.85
2023-08-07T11:52:42.464Z,77.47
2023-08-07T11:57:50.176Z,77.71
2023-08-07T12:02:54.986Z,77.17
2023-08-07T12:08:00.174Z,77.45
2023-08-07T12:13:07.169Z,77.68
2023-08-07T12:18:13.319Z,78.03
2023-08-07T12:23:19.593Z,78.21
2023-08-07T12:28:25.094Z,79.07
2023-08-07T12:33:32.302Z,78.65
2023-08-07T12:38:37.405Z,78.80
2023-08-07T12:43:42.509Z,78.86
2023-08-07T12:48:47.609Z,78.56
2023-08-07T12:53:53.551Z,78.22
2023-08-07T12:58:58.526Z,78.77
2023-08-07T13:04:02.706Z,78.63
2023-08-07T13:09:08.263Z,78.63
2023-08-07T13:14:13.441Z,78.58
2023-08-07T13:19:18.655Z,78.60
2023-08-07T13:24:23.446Z,78.75
2023-08-07T13:29:31.889Z,79.14
2023-08-07T13:34:37.078Z,79.74
2023-08-07T13:39:43.065Z,80.05
2023-08-07T13:44:48.822Z,79.57
2023-08-07T13:49:54.169Z,80.60
2023-08-07T13:54:59.140Z,79.81
2023-08-07T14:00:04.864Z,79.94
2023-08-07T14:05:10.218Z,80.97
2023-08-07T14:10:17.230Z,80.98
2023-08-07T14:15:22.961Z,80.56
2023-08-07T14:20:29.215Z,80.48
2023-08-07T14:25:34.039Z,79.53
2023-08-07T14:30:39.178Z,79.67
2023-08-07T14:35:45.877Z,80.40
2023-08-07T14:40:53.912Z,80.56
2023-08-07T14:45:59.128Z,79.52
2023-08-07T14:51:05.744Z,79.76
2023-08-07T14:56:11.214Z,79.26
2023-08-07T15:01:16.436Z,79.50
2023-08-07T15:06:21.458Z,79.72
2023-08-07T15:11:31.366Z,80.37
2023-08-07T15:16:38.378Z,80.92
2023-08-07T15:21:44.662Z,80.78
2023-08-07T15:26:49.688Z,80.66
2023-08-07T15:31:54.846Z,80.90
2023-08-07T15:37:02.019Z,79.35
2023-08-07T15:42:07.832Z,79.67
2023-08-07T15:47:13.314Z,80.07
2023-08-07T15:52:20.490Z,80.40
2023-08-07T15:57:26.778Z,80.47
2023-08-07T16:02:32.103Z,80.42
2023-08-07T16:07:38.586Z,79.75
2023-08-07T16:12:44.671Z,80.33
2023-08-07T16:17:50.013Z,79.85
2023-08-07T16:22:56.289Z,79.92
2023-08-07T16:28:01.241Z,79.10
2023-08-07T16:33:06.556Z,78.65
2023-08-07T16:38:11.758Z,79.63
2023-08-07T16:43:16.720Z,79.29
2023-08-07T16:48:21.557Z,79.97
2023-08-07T16:53:26.639Z,80.07
2023-08-07T16:58:32.455Z,80.10
2023-08-07T17:03:37.641Z,79.89
2023-08-07T17:08:43.123Z,79.88
2023-08-07T17:13:48.308Z,81.03
2023-08-07T17:18:53.893Z,79.03
2023-08-07T17:23:59.025Z,78.74
2023-08-07T17:29:04.046Z,79.47
2023-08-07T17:34:09.017Z,79.33
2023-08-07T17:39:13.767Z,79.40
2023-08-07T17:44:20.071Z,79.51
2023-08-07T17:49:25.160Z,79.91
2023-08-07T17:54:30.027Z,79.69
2023-08-07T17:59:34.350Z,79.10
2023-08-07T18:04:40.091Z,79.34
2023-08-07T18:09:45.056Z,78.69
2023-08-07T18:14:51.969Z,78.76
2023-08-07T18:19:57.170Z,79.36
2023-08-07T18:25:01.961Z,79.84
2023-08-07T18:30:09.223Z,78.86
2023-08-07T18:35:14.217Z,78.87
2023-08-07T18:40:19.331Z,78.68
2023-08-07T18:45:24.189Z,79.99
2023-08-07T18:50:29.145Z,79.91
2023-08-07T18:55:35.579Z,79.28
2023-08-07T19:00:40.548Z,80.29
2023-08-07T19:05:47.240Z,79.50
2023-08-07T19:10:52.495Z,80.58
2023-08-07T19:15:58.889Z,80.12
2023-08-07T19:21:04.181Z,80.79
2023-08-07T19:26:09.041Z,80.31
2023-08-07T19:31:14.933Z,80.20
2023-08-07T19:36:19.904Z,80.15
2023-08-07T19:41:24.658Z,80.44
2023-08-07T19:46:29.772Z,80.94
2023-08-07T19:51:35.429Z,79.93
2023-08-07T19:56:40.482Z,80.07
2023-08-07T20:01:45.175Z,80.24
2023-08-07T20:06:51.206Z,81.77
2023-08-07T20:11:56.720Z,80.69
2023-08-07T20:17:02.113Z,80.63
2023-08-07T20:22:08.773Z,80.22
2023-08-07T20:27:13.730Z,79.67
2023-08-07T20:32:19.072Z,80.34
2023-08-07T20:37:27.099Z,80.10
2023-08-07T20:42:32.276Z,80.58
2023-08-07T20:47:38.464Z,80.40
2023-08-07T20:52:43.756Z,79.98
2023-08-07T20:57:48.584Z,79.95
2023-08-07T21:02:53.389Z,79.96
2023-08-07T21:07:58.575Z,80.61
2023-08-07T21:13:03.446Z,82.54
2023-08-07T21:18:08.732Z,81.11
2023-08-07T21:23:17.900Z,80.72
2023-08-07T21:28:23.415Z,81.14
2023-08-07T21:33:28.894Z,80.78
2023-08-07T21:38:33.039Z,80.48
2023-08-07T21:43:39.086Z,80.79
2023-08-07T21:48:44.121Z,80.77
2023-08-07T21:53:50.615Z,81.13
2023-08-07T21:58:56.129Z,81.20
2023-08-07T22:04:01.058Z,80.99
2023-08-07T22:09:07.071Z,80.95
2023-08-07T22:14:12.164Z,80.70
2023-08-07T22:19:17.284Z,80.80
2023-08-07T22:24:22.714Z,80.92
2023-08-07T22:29:27.538Z,80.97
2023-08-07T22:34:32.278Z,81.04
2023-08-07T22:39:37.219Z,80.82
2023-08-07T22:44:42.073Z,81.12
2023-08-07T22:49:47.142Z,80.11
2023-08-07T22:54:52.080Z,80.76
2023-08-07T22:59:58.161Z,79.91
2023-08-07T23:05:03.235Z,80.14
2023-08-07T23:10:09.392Z,80.66
2023-08-07T23:15:14.654Z,80.18
2023-08-07T23:20:20.227Z,80.64
2023-08-07T23:25:25.196Z,81.24
2023-08-07T23:30:32.145Z,79.76
2023-08-07T23:35:37.203Z,79.77
2023-08-07T23:40:43.898Z,79.47
2023-08-07T23:45:48.762Z,79.63
2023-08-07T23:50:55.057Z,79.48
2023-08-07T23:56:02.052Z,79.63
